Time;durP1;ratioP1;P1;durP2;ratioP2;P2;SDS_P1;SDS_P2;PMS_P1;PMS_P2;Temp;Humidity;BMP_temperature;BMP_pressure;BME280_temperature;BME280_humidity;BME280_pressure;Samples;Min_cycle;Max_cycle;Signal;HPM_P1;HPM_P2
2023/03/21 00:00:17;;;;;;;0.00;0.00;;;;;;;12.86;71.64;99758.63;7352062;19;20060;-61
2023/03/21 00:02:43;;;;;;;0.10;0.10;;;;;;;12.82;72.05;99771.94;7353324;19;20018;-62
2023/03/21 00:05:08;;;;;;;0.00;0.00;;;;;;;12.67;71.50;99742.97;7350755;19;20018;-62
2023/03/21 00:07:34;;;;;;;0.03;0.03;;;;;;;12.77;71.80;99774.78;7352176;19;20021;-61
2023/03/21 00:10:00;;;;;;;0.00;0.00;;;;;;;12.75;71.74;99775.78;7354239;19;20015;-61
2023/03/21 00:12:25;;;;;;;0.10;0.10;;;;;;;12.72;72.21;99767.16;7352771;19;20343;-62
2023/03/21 00:14:52;;;;;;;0.05;0.05;;;;;;;12.69;71.98;99767.28;7353587;19;20011;-61
2023/03/21 00:17:21;;;;;;;0.00;0.00;;;;;;;12.70;71.80;99774.22;7353191;19;20031;-61
2023/03/21 00:19:47;;;;;;;0.00;0.00;;;;;;;12.69;71.76;99761.22;7356242;19;20356;-62
2023/03/21 00:22:13;;;;;;;0.10;0.10;;;;;;;12.69;71.63;99751.56;7347287;19;20111;-61
2023/03/21 00:24:38;;;;;;;0.10;0.10;;;;;;;12.69;71.02;99746.34;7357272;19;20078;-61
2023/03/21 00:27:04;;;;;;;0.00;0.00;;;;;;;12.69;71.27;99746.34;7353895;19;20031;-61
2023/03/21 00:29:29;;;;;;;0.03;0.03;;;;;;;12.68;70.80;99735.94;7355210;19;20010;-61
2023/03/21 00:31:55;;;;;;;0.10;0.10;;;;;;;12.67;70.41;99724.63;7354577;19;20014;-61
2023/03/21 00:34:20;;;;;;;0.10;0.10;;;;;;;12.62;70.63;99729.22;7353021;19;20006;-61
2023/03/21 00:36:46;;;;;;;0.03;0.03;;;;;;;12.61;69.98;99730.13;7354915;19;20351;-62
2023/03/21 00:39:12;;;;;;;0.00;0.00;;;;;;;12.63;70.68;99730.91;7353729;19;21059;-62
2023/03/21 00:41:38;;;;;;;0.00;0.00;;;;;;;12.62;70.88;99728.34;7349403;19;20010;-62
2023/03/21 00:44:04;;;;;;;0.10;0.10;;;;;;;12.58;70.51;99708.47;7353855;19;20466;-62
2023/03/21 00:46:29;;;;;;;0.00;0.00;;;;;;;12.61;70.55;99737.13;7353964;19;20022;-63
2023/03/21 00:48:55;;;;;;;0.10;0.10;;;;;;;12.60;70.65;99733.66;7355490;19;20094;-62
2023/03/21 00:51:25;;;;;;;0.10;0.10;;;;;;;12.23;70.81;99649.91;7350577;19;20014;-62
2023/03/21 00:53:55;;;;;;;0.00;0.00;;;;;;;12.45;71.03;99685.47;7358025;19;20438;-61
2023/03/21 00:56:21;;;;;;;0.10;0.10;;;;;;;12.65;70.75;99718.59;7360817;19;20010;-62
2023/03/21 00:58:46;;;;;;;0.10;0.10;;;;;;;12.63;70.70;99707.34;7360502;19;20076;-62
2023/03/21 01:01:12;;;;;;;0.10;0.10;;;;;;;12.65;70.78;99708.09;7358656;19;20010;-61
2023/03/21 01:03:41;;;;;;;0.10;0.10;;;;;;;12.70;70.66;99705.28;7354081;19;20021;-62
2023/03/21 01:06:12;;;;;;;0.03;0.03;;;;;;;12.71;70.43;99702.56;7355516;19;20026;-61
2023/03/21 01:08:40;;;;;;;0.10;0.10;;;;;;;12.73;70.28;99690.28;7357678;19;20475;-61
2023/03/21 01:11:12;;;;;;;0.00;0.00;;;;;;;12.75;70.32;99690.19;7357469;19;20871;-61
2023/03/21 01:13:39;;;;;;;0.00;0.00;;;;;;;12.75;70.79;99686.72;7359208;19;20010;-61
2023/03/21 01:16:06;;;;;;;0.00;0.00;;;;;;;12.77;70.24;99690.94;7359231;19;20039;-62
2023/03/21 01:18:33;;;;;;;0.00;0.00;;;;;;;12.74;70.77;99675.41;7357778;19;20031;-61
2023/03/21 01:21:00;;;;;;;0.10;0.10;;;;;;;12.79;71.01;99677.81;7354818;19;20027;-61
2023/03/21 01:23:27;;;;;;;0.10;0.10;;;;;;;12.79;70.90;99670.78;7357644;19;20670;-62
2023/03/21 01:25:54;;;;;;;0.00;0.00;;;;;;;12.81;71.25;99670.69;7360446;19;20922;-61
2023/03/21 01:28:20;;;;;;;0.10;0.10;;;;;;;12.77;70.96;99662.13;7353788;19;20034;-62
2023/03/21 01:30:47;;;;;;;0.10;0.10;;;;;;;12.83;70.93;99661.03;7360156;19;21249;-62
2023/03/21 01:33:13;;;;;;;0.10;0.10;;;;;;;12.84;71.32;99655.69;7356214;19;20018;-61
2023/03/21 01:35:39;;;;;;;0.00;0.00;;;;;;;12.86;71.22;99655.59;7360184;19;20014;-61
2023/03/21 01:38:04;;;;;;;0.10;0.10;;;;;;;12.88;70.97;99645.91;7354363;19;20013;-62
2023/03/21 01:40:30;;;;;;;0.10;0.10;;;;;;;12.89;71.02;99647.63;7356459;19;20023;-61
2023/03/21 01:42:55;;;;;;;0.00;0.00;;;;;;;12.91;70.93;99646.59;7355792;19;20014;-61
2023/03/21 01:45:58;;;;;;;0.13;0.13;;;;;;;12.97;70.79;99642.81;7360709;19;20369;-62
2023/03/21 01:48:25;;;;;;;0.00;0.00;;;;;;;12.96;71.12;99638.50;7257291;19;2004825;-61
2023/03/21 01:50:51;;;;;;;0.10;0.10;;;;;;;12.96;70.88;99633.28;7359709;19;20011;-62
2023/03/21 01:53:21;;;;;;;0.10;0.10;;;;;;;12.94;70.56;99619.41;7354597;19;20040;-62
2023/03/21 01:55:48;;;;;;;0.10;0.10;;;;;;;12.99;70.60;99627.88;7355200;19;20023;-61
2023/03/21 01:58:17;;;;;;;0.00;0.00;;;;;;;13.01;70.49;99627.81;7354584;19;20030;-62
2023/03/21 02:00:44;;;;;;;0.00;0.00;;;;;;;13.01;70.55;99623.41;7359573;19;20010;-62
2023/03/21 02:03:10;;;;;;;;;;;;;;;13.06;69.90;99617.94;7359508;19;20022;-61
2023/03/21 02:06:05;;;;;;;0.10;0.10;;;;;;;13.04;69.84;99609.31;7350771;19;20398;-62
2023/03/21 02:08:32;;;;;;;0.10;0.10;;;;;;;12.93;70.20;99596.75;7257578;19;2004579;-61
2023/03/21 02:10:58;;;;;;;0.10;0.10;;;;;;;12.94;70.14;99601.91;7350523;19;20790;-62
2023/03/21 02:13:24;;;;;;;0.00;0.00;;;;;;;12.92;70.82;99595.03;7357145;19;20010;-62
2023/03/21 02:16:11;;;;;;;0.05;0.05;;;;;;;12.91;70.22;99594.19;7358494;19;20470;-61
2023/03/21 02:18:55;;;;;;;0.00;0.00;;;;;;;12.89;70.60;99584.72;7355324;19;20043;-62
2023/03/21 02:21:30;;;;;;;0.05;0.05;;;;;;;12.86;70.92;99579.63;7358941;19;20010;-62
2023/03/21 02:24:07;;;;;;;0.00;0.00;;;;;;;12.84;70.99;99571.84;7358362;19;20039;-61
2023/03/21 02:26:54;;;;;;;0.03;0.03;;;;;;;12.82;71.28;99567.59;7357072;19;20010;-62
2023/03/21 02:29:51;;;;;;;0.05;0.05;;;;;;;12.81;70.92;99566.75;7358566;19;20890;-61
2023/03/21 02:32:40;;;;;;;0.00;0.00;;;;;;;12.79;71.07;99563.38;7257572;19;2004609;-61
2023/03/21 02:35:35;;;;;;;0.00;0.00;;;;;;;12.78;71.36;99560.84;7356782;19;20006;-62
2023/03/21 02:38:30;;;;;;;0.08;0.08;;;;;;;12.76;70.79;99557.44;7248623;19;2004506;-62
2023/03/21 02:41:20;;;;;;;0.10;0.10;;;;;;;12.77;70.58;99559.13;7256142;19;2004086;-61
2023/03/21 02:43:57;;;;;;;0.10;0.10;;;;;;;12.76;71.03;99552.19;7356477;19;20018;-61
2023/03/21 02:46:48;;;;;;;0.00;0.00;;;;;;;12.76;70.83;99541.72;7355343;19;20086;-62
2023/03/21 02:49:41;;;;;;;0.08;0.08;;;;;;;12.69;70.67;99534.16;7254932;19;2004771;-62
2023/03/21 02:52:11;;;;;;;0.00;0.00;;;;;;;12.72;70.91;99541.88;7257465;19;2004561;-62
2023/03/21 02:54:37;;;;;;;0.00;0.00;;;;;;;12.72;71.10;99541.88;7356458;19;20054;-62
2023/03/21 02:57:03;;;;;;;0.10;0.10;;;;;;;12.67;71.32;99522.94;7356836;19;20871;-62
2023/03/21 02:59:30;;;;;;;0.10;0.10;;;;;;;12.70;70.79;99528.00;7343821;19;20006;-62
2023/03/21 03:01:56;;;;;;;0.00;0.00;;;;;;;12.69;71.15;99517.59;7353661;19;20014;-62
2023/03/21 03:04:26;;;;;;;0.10;0.10;;;;;;;12.73;70.90;99517.38;7348102;19;20011;-62
2023/03/21 03:06:57;;;;;;;0.10;0.10;;;;;;;12.74;70.91;99513.00;7350316;19;20010;-62
2023/03/21 03:09:47;;;;;;;0.03;0.03;;;;;;;12.77;71.14;99511.97;7349709;19;21060;-61
2023/03/21 03:12:30;;;;;;;0.10;0.10;;;;;;;12.76;70.96;99499.81;7355223;19;20530;-61
2023/03/21 03:15:11;;;;;;;0.10;0.10;;;;;;;12.76;71.26;99505.88;7353574;19;20014;-62
2023/03/21 03:18:12;;;;;;;0.10;0.10;;;;;;;12.78;70.51;99504.06;7350988;19;20014;-62
2023/03/21 03:20:54;;;;;;;0.00;0.00;;;;;;;12.77;71.30;99504.97;7247953;19;2006314;-62
2023/03/21 03:23:34;;;;;;;0.10;0.10;;;;;;;12.77;71.03;99501.50;7354127;19;20021;-62
2023/03/21 03:26:13;;;;;;;0.10;0.10;;;;;;;12.76;71.16;99494.56;7353481;19;20036;-62
2023/03/21 03:28:44;;;;;;;0.08;0.08;;;;;;;12.72;72.00;99484.25;7351756;19;20565;-62
2023/03/21 03:31:14;;;;;;;0.10;0.10;;;;;;;12.72;72.08;99486.00;7347711;19;20025;-62
2023/03/21 03:33:45;;;;;;;0.00;0.00;;;;;;;12.72;71.86;99478.16;7351841;19;20419;-63
2023/03/21 03:36:14;;;;;;;0.10;0.10;;;;;;;12.69;72.23;99473.09;7348342;19;20086;-62
2023/03/21 03:38:41;;;;;;;0.10;0.10;;;;;;;12.69;71.82;99476.53;7351407;19;20600;-62
2023/03/21 03:41:14;;;;;;;0.10;0.10;;;;;;;12.71;71.71;99477.31;7351513;19;20878;-62
2023/03/21 03:43:46;;;;;;;0.10;0.10;;;;;;;12.71;71.83;99465.97;7354584;19;20010;-62
2023/03/21 03:46:17;;;;;;;0.10;0.10;;;;;;;12.73;72.11;99470.22;7351027;19;20822;-62
2023/03/21 03:48:50;;;;;;;0.00;0.00;;;;;;;12.73;72.37;99465.00;7354381;19;20010;-61
2023/03/21 03:51:22;;;;;;;0.10;0.10;;;;;;;12.75;72.77;99458.81;7353387;19;20029;-62
2023/03/21 03:53:58;;;;;;;0.10;0.10;;;;;;;12.76;72.54;99463.13;7351788;19;20018;-62
2023/03/21 03:56:25;;;;;;;0.10;0.10;;;;;;;12.73;72.52;99454.50;7351969;19;20622;-62
2023/03/21 03:58:50;;;;;;;0.10;0.10;;;;;;;12.73;72.27;99459.75;7354009;19;20046;-61
2023/03/21 04:01:16;;;;;;;0.10;0.10;;;;;;;12.75;72.89;99445.72;7346217;19;20024;-62
2023/03/21 04:03:46;;;;;;;0.10;0.10;;;;;;;12.73;72.79;99436.19;7335346;19;20585;-62
2023/03/21 04:06:12;;;;;;;0.05;0.05;;;;;;;12.77;72.63;99441.25;7353620;19;20036;-61
2023/03/21 04:08:38;;;;;;;0.10;0.10;;;;;;;12.76;72.08;99440.41;7349989;19;20019;-60
2023/03/21 04:11:04;;;;;;;0.00;0.00;;;;;;;12.76;72.55;99432.53;7353683;19;20388;-62
2023/03/21 04:13:29;;;;;;;0.00;0.00;;;;;;;12.77;72.22;99428.16;7351119;19;20026;-62
2023/03/21 04:15:55;;;;;;;0.10;0.10;;;;;;;12.76;72.29;99424.69;7354392;19;20769;-62
2023/03/21 04:18:22;;;;;;;0.10;0.10;;;;;;;12.76;72.80;99421.22;7346772;19;20063;-61
2023/03/21 04:20:49;;;;;;;0.10;0.10;;;;;;;12.75;72.80;99411.66;7328238;19;20380;-62
2023/03/21 04:23:16;;;;;;;0.00;0.00;;;;;;;12.76;72.84;99413.34;7348927;19;20026;-62
2023/03/21 04:25:41;;;;;;;0.10;0.10;;;;;;;12.76;72.81;99424.69;7353245;19;20018;-62
2023/03/21 04:28:07;;;;;;;0.10;0.10;;;;;;;12.72;72.26;99408.31;7352636;19;20018;-62
2023/03/21 04:30:33;;;;;;;0.00;0.00;;;;;;;12.75;72.70;99404.66;7361017;19;20019;-62
2023/03/21 04:33:00;;;;;;;0.10;0.10;;;;;;;12.74;72.62;99408.22;7356839;19;20057;-61
2023/03/21 04:35:26;;;;;;;0.00;0.00;;;;;;;12.72;72.45;99394.31;7360578;19;20057;-62
2023/03/21 04:37:51;;;;;;;0.10;0.10;;;;;;;12.70;72.74;99390.97;7359344;19;20010;-62
2023/03/21 04:40:17;;;;;;;0.10;0.10;;;;;;;12.71;73.18;99397.88;7360017;19;20017;-62
2023/03/21 04:42:44;;;;;;;0.05;0.05;;;;;;;12.70;73.12;99394.41;7363103;19;20714;-61
2023/03/21 04:45:09;;;;;;;0.10;0.10;;;;;;;12.64;72.66;99380.81;7360651;19;20085;-60
2023/03/21 04:47:35;;;;;;;0.10;0.10;;;;;;;12.69;73.19;99387.50;7361424;19;20640;-63
2023/03/21 04:50:01;;;;;;;0.10;0.10;;;;;;;12.68;72.91;99377.09;7361273;19;20048;-61
2023/03/21 04:52:26;;;;;;;0.10;0.10;;;;;;;12.70;73.55;99377.84;7356109;19;20014;-61
2023/03/21 04:54:52;;;;;;;0.00;0.00;;;;;;;12.70;73.03;99381.31;7361103;19;20059;-60
2023/03/21 04:57:18;;;;;;;0.05;0.05;;;;;;;12.60;73.47;99374.88;7359456;19;20002;-61
2023/03/21 04:59:43;;;;;;;0.10;0.10;;;;;;;12.71;73.24;99388.25;7357444;19;20033;-62
2023/03/21 05:02:09;;;;;;;0.10;0.10;;;;;;;12.71;73.31;99388.25;7362973;19;20007;-62
2023/03/21 05:04:34;;;;;;;0.10;0.10;;;;;;;12.73;73.36;99398.66;7360228;19;20007;-62
2023/03/21 05:07:00;;;;;;;0.00;0.00;;;;;;;12.75;73.67;99393.34;7360287;19;20686;-62
2023/03/21 05:09:26;;;;;;;0.10;0.10;;;;;;;12.71;73.32;99383.00;7360624;19;20006;-62
2023/03/21 05:11:52;;;;;;;0.00;0.00;;;;;;;12.76;73.59;99390.63;7361085;19;20499;-62
2023/03/21 05:14:23;;;;;;;0.10;0.10;;;;;;;12.80;73.36;99380.84;7357784;19;20034;-62
2023/03/21 05:16:54;;;;;;;0.10;0.10;;;;;;;12.79;73.93;99377.38;7363698;19;20415;-62
2023/03/21 05:19:23;;;;;;;0.03;0.03;;;;;;;12.81;73.93;99374.66;7360430;19;20070;-62
2023/03/21 05:21:49;;;;;;;0.00;0.00;;;;;;;12.81;74.01;99366.81;7357510;19;20018;-62
2023/03/21 05:24:18;;;;;;;0.10;0.10;;;;;;;12.84;73.73;99369.28;7358477;19;20283;-62
2023/03/21 05:26:49;;;;;;;0.05;0.05;;;;;;;12.73;73.84;99349.75;7359711;19;20348;-62
2023/03/21 05:29:15;;;;;;;0.08;0.08;;;;;;;12.84;73.71;99362.25;7357151;19;20010;-62
2023/03/21 05:31:41;;;;;;;0.10;0.10;;;;;;;12.82;74.01;99358.00;7359813;19;20686;-60
2023/03/21 05:34:06;;;;;;;0.10;0.10;;;;;;;12.87;74.00;99367.31;7360434;19;20006;-62
2023/03/21 05:36:34;;;;;;;0.10;0.10;;;;;;;12.88;73.87;99369.03;7360815;19;20715;-62
2023/03/21 05:39:00;;;;;;;0.10;0.10;;;;;;;12.90;74.29;99371.56;7357668;19;20037;-61
2023/03/21 05:41:26;;;;;;;0.10;0.10;;;;;;;12.92;74.27;99364.47;7357546;19;21031;-62
2023/03/21 05:43:51;;;;;;;0.10;0.10;;;;;;;12.93;73.98;99366.19;7357122;19;20021;-62
2023/03/21 05:46:17;;;;;;;0.10;0.10;;;;;;;12.93;73.77;99361.78;7361743;19;20118;-62
2023/03/21 05:48:42;;;;;;;0.10;0.10;;;;;;;12.96;73.94;99363.38;7360698;19;20020;-62
2023/03/21 05:51:07;;;;;;;0.10;0.10;;;;;;;12.96;73.78;99366.00;7356193;19;20089;-62
2023/03/21 05:53:33;;;;;;;0.10;0.10;;;;;;;12.78;73.59;99338.19;7355811;19;20010;-62
2023/03/21 05:55:59;;;;;;;0.10;0.10;;;;;;;12.99;73.04;99381.56;7356943;19;20017;-62
2023/03/21 05:58:24;;;;;;;0.10;0.10;;;;;;;12.97;72.40;99368.53;7359982;19;20055;-61
2023/03/21 06:00:50;;;;;;;0.00;0.00;;;;;;;12.96;72.71;99373.84;7359335;19;20039;-62
2023/03/21 06:03:15;;;;;;;0.00;0.00;;;;;;;12.96;72.61;99371.22;7355991;19;20006;-62
2023/03/21 06:05:41;;;;;;;0.10;0.10;;;;;;;12.96;72.12;99373.84;7356340;19;20022;-61
2023/03/21 06:08:06;;;;;;;0.00;0.00;;;;;;;12.85;72.41;99357.88;7359944;19;20022;-61
2023/03/21 06:10:32;;;;;;;0.00;0.00;;;;;;;12.92;72.19;99369.69;7358014;19;20840;-62
2023/03/21 06:12:57;;;;;;;0.00;0.00;;;;;;;12.91;72.14;99378.50;7356034;19;20014;-62
2023/03/21 06:15:23;;;;;;;0.10;0.10;;;;;;;12.88;71.86;99383.91;7356942;19;20086;-62
2023/03/21 06:17:49;;;;;;;0.10;0.10;;;;;;;12.85;72.58;99384.91;7356055;19;20022;-60
2023/03/21 06:20:14;;;;;;;0.05;0.05;;;;;;;12.79;72.33;99376.53;7356699;19;20033;-62
2023/03/21 06:22:40;;;;;;;0.10;0.10;;;;;;;12.77;72.85;99387.06;7359454;19;20047;-61
2023/03/21 06:25:09;;;;;;;0.00;0.00;;;;;;;12.67;72.56;99391.97;7357009;19;20018;-61
2023/03/21 06:27:35;;;;;;;0.10;0.10;;;;;;;12.73;72.55;99399.50;7358171;19;20011;-61
2023/03/21 06:30:00;;;;;;;0.10;0.10;;;;;;;12.70;72.76;99412.75;7356542;19;20792;-61
2023/03/21 06:32:26;;;;;;;0.00;0.00;;;;;;;12.69;72.47;99411.06;7359580;19;20103;-62
2023/03/21 06:34:52;;;;;;;0.00;0.00;;;;;;;12.68;72.02;99403.28;7353054;19;20114;-62
2023/03/21 06:37:18;;;;;;;0.00;0.00;;;;;;;12.66;72.61;99410.38;7357930;19;20455;-61
2023/03/21 06:39:43;;;;;;;0.10;0.10;;;;;;;12.62;72.68;99417.56;7356439;19;20002;-62
2023/03/21 06:42:09;;;;;;;0.10;0.10;;;;;;;12.59;72.91;99422.94;7357153;19;20778;-62
2023/03/21 06:44:34;;;;;;;0.10;0.10;;;;;;;12.54;72.34;99411.84;7355950;19;20006;-62
2023/03/21 06:47:00;;;;;;;0.00;0.00;;;;;;;12.54;72.65;99422.34;7356429;19;20021;-62
2023/03/21 06:49:26;;;;;;;0.00;0.00;;;;;;;12.42;72.96;99409.88;7354768;19;20024;-62
2023/03/21 06:51:51;;;;;;;0.00;0.00;;;;;;;12.48;72.81;99425.28;7356935;19;20031;-61
2023/03/21 06:54:17;;;;;;;0.00;0.00;;;;;;;12.46;72.68;99432.34;7357563;19;20018;-62
2023/03/21 06:56:43;;;;;;;0.10;0.10;;;;;;;12.40;72.89;99440.50;7351684;19;20081;-61
2023/03/21 06:59:09;;;;;;;0.00;0.00;;;;;;;12.39;72.62;99437.03;7346889;19;20120;-62
2023/03/21 07:01:34;;;;;;;0.00;0.00;;;;;;;12.38;72.93;99445.00;7354667;19;20019;-61
2023/03/21 07:04:00;;;;;;;0.10;0.10;;;;;;;12.36;72.92;99441.56;7351568;19;20562;-62
2023/03/21 07:06:26;;;;;;;0.00;0.00;;;;;;;12.37;72.61;99432.81;7352454;19;20018;-61
2023/03/21 07:08:54;;;;;;;0.10;0.10;;;;;;;12.31;72.59;99425.25;7353003;19;20074;-62
2023/03/21 07:11:21;;;;;;;0.00;0.00;;;;;;;12.36;72.93;99444.19;7348816;19;20023;-61
2023/03/21 07:13:47;;;;;;;0.00;0.00;;;;;;;12.36;72.66;99450.28;7348540;19;20100;-61
2023/03/21 07:16:13;;;;;;;0.00;0.00;;;;;;;12.35;72.91;99450.34;7350437;19;20487;-62
2023/03/21 07:18:39;;;;;;;0.10;0.10;;;;;;;12.34;73.22;99454.75;7348641;19;20018;-64
2023/03/21 07:21:04;;;;;;;0.08;0.08;;;;;;;12.35;72.89;99453.81;7355068;19;20016;-62
2023/03/21 07:23:30;;;;;;;0.10;0.10;;;;;;;12.35;72.93;99455.59;7346325;19;20082;-61
2023/03/21 07:25:55;;;;;;;0.10;0.10;;;;;;;12.36;72.80;99471.22;7353672;19;20104;-62
2023/03/21 07:28:22;;;;;;;0.00;0.00;;;;;;;12.39;73.11;99467.63;7349334;19;20402;-61
2023/03/21 07:30:56;;;;;;;0.10;0.10;;;;;;;12.43;73.34;99462.16;7353973;19;20830;-61
2023/03/21 07:33:22;;;;;;;0.10;0.10;;;;;;;12.43;73.35;99471.78;7352857;19;20067;-61
2023/03/21 07:35:49;;;;;;;0.10;0.10;;;;;;;12.44;73.35;99478.72;7353506;19;20026;-62
2023/03/21 07:38:15;;;;;;;0.10;0.10;;;;;;;12.47;73.37;99481.19;7330596;19;20589;-62
2023/03/21 07:40:41;;;;;;;0.10;0.10;;;;;;;12.49;73.20;99487.19;7356700;19;20925;-59
2023/03/21 07:43:06;;;;;;;0.10;0.10;;;;;;;12.51;73.07;99480.09;7352224;19;20108;-62
2023/03/21 07:45:32;;;;;;;0.10;0.10;;;;;;;12.54;73.41;99490.41;7347340;19;20407;-62
2023/03/21 07:47:57;;;;;;;0.10;0.10;;;;;;;12.56;73.27;99488.56;7353423;19;20689;-62
2023/03/21 07:50:23;;;;;;;0.10;0.10;;;;;;;12.56;73.11;99483.31;7316542;19;20013;-62
2023/03/21 07:52:48;;;;;;;0.10;0.10;;;;;;;12.61;73.01;99490.94;7325564;19;20469;-62
2023/03/21 07:55:16;;;;;;;0.10;0.10;;;;;;;12.62;72.70;99498.75;7343168;19;20031;-62
2023/03/21 07:57:41;;;;;;;;;;;;;;;12.68;72.29;99501.06;7337144;19;20051;-62
2023/03/21 08:00:07;;;;;;;0.00;0.00;;;;;;;12.66;72.52;99505.50;7339141;19;21200;-62
2023/03/21 08:02:33;;;;;;;0.00;0.00;;;;;;;12.69;72.31;99526.31;7337386;19;20521;-62
2023/03/21 08:04:58;;;;;;;0.00;0.00;;;;;;;12.69;72.61;99542.03;7346028;19;20023;-62
2023/03/21 08:07:26;;;;;;;0.10;0.10;;;;;;;12.65;73.15;99524.75;7345632;19;20574;-62
2023/03/21 08:09:51;;;;;;;0.00;0.00;;;;;;;12.62;72.81;99518.81;7347453;19;20887;-60
2023/03/21 08:12:16;;;;;;;0.10;0.10;;;;;;;12.49;73.03;99510.75;7347426;19;20027;-62
2023/03/21 08:14:42;;;;;;;0.00;0.00;;;;;;;12.59;72.80;99537.31;7348814;19;20649;-62
2023/03/21 08:17:08;;;;;;;0.00;0.00;;;;;;;12.57;73.00;99532.19;7349541;19;20023;-62
2023/03/21 08:19:34;;;;;;;0.00;0.00;;;;;;;12.46;73.63;99513.50;7348951;19;20014;-62
2023/03/21 08:22:00;;;;;;;0.08;0.08;;;;;;;12.58;74.03;99515.53;7352599;19;20102;-62
2023/03/21 08:24:27;;;;;;;0.10;0.10;;;;;;;12.63;73.43;99512.69;7347986;19;20010;-62
2023/03/21 08:26:52;;;;;;;0.10;0.10;;;;;;;12.68;73.39;99508.91;7352736;19;20030;-62
2023/03/21 08:29:18;;;;;;;0.10;0.10;;;;;;;12.72;73.46;99510.47;7344346;19;20749;-62
2023/03/21 08:31:43;;;;;;;0.00;0.00;;;;;;;12.76;73.00;99499.81;7331609;19;20015;-62
2023/03/21 08:34:09;;;;;;;0.05;0.05;;;;;;;12.79;72.97;99505.75;7350526;19;20050;-62
2023/03/21 08:36:36;;;;;;;0.05;0.05;;;;;;;12.81;72.87;99503.88;7340695;19;20021;-62
2023/03/21 08:39:05;;;;;;;0.10;0.10;;;;;;;12.84;72.73;99508.13;7346491;19;20014;-62
2023/03/21 08:41:35;;;;;;;0.00;0.00;;;;;;;12.90;72.55;99510.44;7352211;19;20658;-62
2023/03/21 08:44:01;;;;;;;0.10;0.10;;;;;;;12.87;71.99;99519.28;7349998;19;20035;-62
2023/03/21 08:46:27;;;;;;;0.00;0.00;;;;;;;12.86;72.51;99524.59;7350830;19;20032;-62
2023/03/21 08:48:53;;;;;;;0.08;0.08;;;;;;;12.88;72.10;99520.16;7350721;19;20870;-61
2023/03/21 08:51:19;;;;;;;0.10;0.10;;;;;;;12.89;72.18;99521.84;7352101;19;20002;-62
2023/03/21 08:53:44;;;;;;;0.10;0.10;;;;;;;12.89;71.83;99511.38;7351273;19;20481;-62
2023/03/21 08:56:10;;;;;;;0.10;0.10;;;;;;;12.89;71.21;99516.59;7351933;19;20023;-62
2023/03/21 08:58:36;;;;;;;0.10;0.10;;;;;;;12.89;71.75;99519.22;7349465;19;20007;-62
2023/03/21 09:01:02;;;;;;;0.03;0.03;;;;;;;12.94;71.62;99527.69;7352267;19;20018;-62
2023/03/21 09:03:29;;;;;;;0.00;0.00;;;;;;;12.95;71.28;99521.53;7351227;19;20017;-62
2023/03/21 09:05:55;;;;;;;0.05;0.05;;;;;;;13.00;71.58;99530.00;7350449;19;20014;-62
2023/03/21 09:08:22;;;;;;;0.10;0.10;;;;;;;13.07;71.16;99533.97;7349917;19;20963;-62
2023/03/21 09:10:56;;;;;;;0.10;0.10;;;;;;;13.18;71.64;99547.41;7350873;19;20657;-62
2023/03/21 09:13:23;;;;;;;0.05;0.05;;;;;;;13.18;69.73;99518.56;7350760;19;20014;-62
2023/03/21 09:15:49;;;;;;;0.00;0.00;;;;;;;13.23;69.38;99542.81;7349088;19;20026;-61
2023/03/21 09:18:16;;;;;;;0.10;0.10;;;;;;;13.33;70.43;99537.06;7349592;19;20395;-62
2023/03/21 09:20:45;;;;;;;0.10;0.10;;;;;;;13.45;70.17;99547.75;7351265;19;20018;-61
2023/03/21 09:23:12;;;;;;;0.10;0.10;;;;;;;13.59;70.41;99539.16;7350711;19;21201;-61
2023/03/21 09:25:38;;;;;;;0.00;0.00;;;;;;;13.72;69.71;99537.56;7350235;19;20629;-62
2023/03/21 09:28:04;;;;;;;0.03;0.03;;;;;;;13.88;69.92;99544.59;7349353;19;20418;-61
2023/03/21 09:30:32;;;;;;;0.10;0.10;;;;;;;14.04;69.74;99537.59;7351190;19;20015;-62
2023/03/21 09:33:11;;;;;;;0.10;0.10;;;;;;;14.30;69.05;99536.13;7348464;19;20022;-62
2023/03/21 09:35:37;;;;;;;0.10;0.10;;;;;;;14.44;68.23;99530.06;7349783;19;20010;-62
2023/03/21 09:38:04;;;;;;;0.10;0.10;;;;;;;14.56;68.17;99536.44;7349365;19;20519;-62
2023/03/21 09:40:57;;;;;;;0.10;0.10;;;;;;;14.74;68.49;99536.22;7351181;19;20884;-62
2023/03/21 09:43:55;;;;;;;0.00;0.00;;;;;;;14.86;67.62;99528.56;7248296;19;2004553;-62
2023/03/21 09:46:51;;;;;;;0.10;0.10;;;;;;;14.90;67.17;99530.03;7247516;19;2004301;-62
2023/03/21 09:49:21;;;;;;;0.10;0.10;;;;;;;14.91;65.82;99526.50;7244317;19;2004567;-62
2023/03/21 09:51:53;;;;;;;0.10;0.10;;;;;;;14.89;65.05;99523.09;7351866;19;20010;-62
2023/03/21 09:54:23;;;;;;;0.00;0.00;;;;;;;14.91;65.59;99521.25;7348010;19;20047;-63
2023/03/21 09:56:54;;;;;;;0.10;0.10;;;;;;;14.94;65.37;99529.78;7352300;19;20010;-62
2023/03/21 09:59:39;;;;;;;0.10;0.10;;;;;;;14.99;65.41;99524.25;7347460;19;20006;-62
2023/03/21 10:02:35;;;;;;;0.10;0.10;;;;;;;15.04;66.29;99537.97;7349259;19;20010;-62
2023/03/21 10:05:08;;;;;;;0.10;0.10;;;;;;;15.02;65.17;99514.41;7247838;19;2004597;-62
2023/03/21 10:07:40;;;;;;;0.10;0.10;;;;;;;15.11;65.25;99523.53;7348322;19;20078;-62
2023/03/21 10:10:11;;;;;;;0.10;0.10;;;;;;;15.10;64.30;99521.81;7348343;19;20010;-62
2023/03/21 10:12:37;;;;;;;0.10;0.10;;;;;;;14.61;64.77;99445.91;7347996;19;20039;-62
2023/03/21 10:15:04;;;;;;;0.10;0.10;;;;;;;15.15;64.13;99519.75;7347786;19;20006;-62
2023/03/21 10:17:42;;;;;;;0.10;0.10;;;;;;;15.22;64.73;99525.50;7350223;19;20042;-62
2023/03/21 10:20:10;;;;;;;0.10;0.10;;;;;;;15.20;63.62;99515.06;7346940;19;20007;-62
2023/03/21 10:22:36;;;;;;;0.10;0.10;;;;;;;15.21;63.51;99516.78;7345865;19;21158;-62
2023/03/21 10:25:04;;;;;;;0.10;0.10;;;;;;;15.16;63.61;99489.91;7345932;19;20476;-62
2023/03/21 10:27:31;;;;;;;0.03;0.03;;;;;;;15.29;64.10;99511.88;7349199;19;20007;-62
2023/03/21 10:29:59;;;;;;;0.10;0.10;;;;;;;15.31;63.27;99504.75;7349077;19;20015;-62
2023/03/21 10:32:25;;;;;;;0.00;0.00;;;;;;;15.34;63.44;99493.19;7348825;19;20018;-62
2023/03/21 10:34:55;;;;;;;0.10;0.10;;;;;;;15.40;63.75;99502.47;7347696;19;20873;-62
2023/03/21 10:37:22;;;;;;;0.10;0.10;;;;;;;15.46;64.04;99507.38;7350691;19;20261;-62
2023/03/21 10:39:51;;;;;;;0.10;0.10;;;;;;;15.63;63.83;99501.94;7348587;19;20019;-62
2023/03/21 10:42:29;;;;;;;0.03;0.03;;;;;;;15.88;64.64;99508.31;7349589;19;20010;-62
2023/03/21 10:44:56;;;;;;;0.10;0.10;;;;;;;16.06;62.13;99501.84;7347663;19;20046;-62
2023/03/21 10:47:32;;;;;;;0.10;0.10;;;;;;;16.30;62.05;99500.25;7349071;19;20033;-61
2023/03/21 10:50:05;;;;;;;0.10;0.10;;;;;;;16.49;61.95;99517.50;7347144;19;20038;-62
2023/03/21 10:52:32;;;;;;;0.10;0.10;;;;;;;16.52;60.10;99504.09;7349090;19;20011;-62
2023/03/21 10:55:14;;;;;;;0.10;0.10;;;;;;;16.52;61.64;99483.00;7347388;19;20140;-61
2023/03/21 10:57:40;;;;;;;0.10;0.10;;;;;;;16.67;59.77;99497.81;7348304;19;20006;-62
2023/03/21 11:00:15;;;;;;;0.10;0.10;;;;;;;16.82;59.90;99504.72;7349689;19;20225;-62
2023/03/21 11:02:42;;;;;;;0.10;0.10;;;;;;;17.03;59.96;99496.28;7349984;19;20010;-62
2023/03/21 11:05:26;;;;;;;0.10;0.10;;;;;;;17.24;60.59;99502.75;7344342;19;20235;-62
2023/03/21 11:07:58;;;;;;;0.10;0.10;;;;;;;17.41;59.90;99503.38;7347924;19;20015;-62
2023/03/21 11:10:33;;;;;;;0.05;0.05;;;;;;;17.57;59.13;99506.59;7348736;19;20905;-62
2023/03/21 11:13:05;;;;;;;0.10;0.10;;;;;;;17.73;59.30;99528.34;7347450;19;20010;-62
2023/03/21 11:15:39;;;;;;;0.10;0.10;;;;;;;17.80;57.20;99511.13;7347328;19;20023;-62
2023/03/21 11:18:20;;;;;;;0.10;0.10;;;;;;;17.85;58.18;99498.44;7346258;19;20613;-62
2023/03/21 11:20:58;;;;;;;0.10;0.10;;;;;;;17.91;56.41;99512.16;7348005;19;20040;-62
2023/03/21 11:23:29;;;;;;;0.10;0.10;;;;;;;17.93;57.03;99520.81;7347748;19;20762;-62
2023/03/21 11:25:57;;;;;;;0.10;0.10;;;;;;;17.87;56.61;99530.88;7348013;19;20479;-62
2023/03/21 11:28:27;;;;;;;0.10;0.10;;;;;;;17.86;56.62;99504.56;7344016;19;20042;-62
2023/03/21 11:30:56;;;;;;;0.10;0.10;;;;;;;17.83;56.71;99505.63;7348567;19;20018;-62
2023/03/21 11:33:45;;;;;;;0.00;0.00;;;;;;;18.07;58.87;99491.59;7345479;19;20029;-62
2023/03/21 11:36:16;;;;;;;0.10;0.10;;;;;;;18.21;56.03;99494.09;7246281;19;2004260;-62
2023/03/21 11:38:42;;;;;;;0.10;0.10;;;;;;;18.33;54.79;99516.13;7344465;19;20038;-62
2023/03/21 11:41:07;;;;;;;0.00;0.00;;;;;;;18.46;55.30;99545.16;7349525;19;20034;-62
2023/03/21 11:43:37;;;;;;;0.10;0.10;;;;;;;18.44;55.19;99526.72;7344580;19;20018;-62